createdAt,value
2023-04-02T00:01:39.795Z,9.28
2023-04-02T00:04:14.819Z,9.20
2023-04-02T00:06:45.067Z,9.05
2023-04-02T00:09:14.856Z,9.08
2023-04-02T00:11:44.725Z,8.77
2023-04-02T00:14:31.897Z,8.87
2023-04-02T00:17:05.959Z,8.80
2023-04-02T00:19:44.963Z,8.94
2023-04-02T00:22:20.378Z,9.10
2023-04-02T00:24:51.012Z,9.18
2023-04-02T00:27:18.042Z,9.17
2023-04-02T00:29:55.524Z,9.34
2023-04-02T00:32:30.470Z,9.33
2023-04-02T00:35:00.914Z,9.38
2023-04-02T00:37:38.683Z,9.29
2023-04-02T00:40:16.695Z,9.41
2023-04-02T00:42:48.107Z,9.51
2023-04-02T00:45:37.109Z,9.55
2023-04-02T00:48:31.644Z,9.52
2023-04-02T00:51:11.656Z,9.53
2023-04-02T00:53:42.564Z,9.45
2023-04-02T00:56:20.586Z,9.46
2023-04-02T00:58:53.510Z,9.49
2023-04-02T01:01:25.170Z,9.50
2023-04-02T01:04:00.289Z,9.40
2023-04-02T01:06:37.961Z,9.46
2023-04-02T01:09:23.104Z,9.34
2023-04-02T01:12:05.737Z,9.22
2023-04-02T01:14:52.339Z,9.35
2023-04-02T01:17:49.033Z,9.15
2023-04-02T01:20:25.410Z,9.23
2023-04-02T01:22:58.841Z,9.22
2023-04-02T01:25:54.775Z,9.12
2023-04-02T01:28:39.668Z,9.02
2023-04-02T01:31:06.587Z,9.03
2023-04-02T01:33:35.308Z,9.24
2023-04-02T01:36:26.387Z,9.14
2023-04-02T01:39:12.313Z,9.19
2023-04-02T01:41:46.708Z,9.23
2023-04-02T01:44:29.670Z,9.15
2023-04-02T01:47:03.870Z,8.98
2023-04-02T01:49:33.121Z,8.93
2023-04-02T01:51:59.644Z,8.99
2023-04-02T01:54:31.456Z,9.07
2023-04-02T01:56:58.263Z,8.97
2023-04-02T01:59:26.407Z,9.02
2023-04-02T02:02:02.661Z,9.12
2023-04-02T02:04:29.916Z,8.97
2023-04-02T02:07:00.859Z,8.99
2023-04-02T02:09:35.795Z,8.84
2023-04-02T02:12:07.208Z,8.83
2023-04-02T02:14:33.806Z,8.94
2023-04-02T02:17:13.352Z,8.69
2023-04-02T02:19:44.940Z,8.79
2023-04-02T02:22:14.286Z,8.74
2023-04-02T02:24:44.166Z,8.72
2023-04-02T02:27:25.495Z,8.81
2023-04-02T02:29:53.948Z,8.68
2023-04-02T02:32:27.412Z,8.89
2023-04-02T02:35:19.269Z,8.80
2023-04-02T02:37:52.623Z,8.82
2023-04-02T02:40:26.706Z,8.78
2023-04-02T02:42:59.760Z,8.88
2023-04-02T02:45:30.033Z,8.95
2023-04-02T02:48:00.461Z,9.04
2023-04-02T02:50:32.543Z,8.99
2023-04-02T02:53:05.375Z,8.94
2023-04-02T02:55:36.977Z,8.78
2023-04-02T02:58:15.615Z,8.82
2023-04-02T03:00:46.140Z,8.75
2023-04-02T03:03:18.911Z,8.61
2023-04-02T03:05:53.859Z,8.62
2023-04-02T03:08:54.555Z,8.61
2023-04-02T03:11:39.976Z,8.64
2023-04-02T03:14:31.549Z,8.48
2023-04-02T03:17:30.301Z,8.39
2023-04-02T03:20:13.441Z,8.32
2023-04-02T03:22:54.072Z,8.42
2023-04-02T03:25:38.749Z,8.63
2023-04-02T03:28:16.985Z,8.81
2023-04-02T03:30:52.904Z,8.85
2023-04-02T03:33:28.878Z,8.84
2023-04-02T03:35:59.906Z,8.85
2023-04-02T03:38:52.437Z,9.00
2023-04-02T03:41:27.632Z,8.95
2023-04-02T03:44:00.132Z,9.02
2023-04-02T03:46:44.752Z,9.01
2023-04-02T03:49:31.556Z,9.08
2023-04-02T03:52:06.807Z,9.22
2023-04-02T03:54:36.436Z,9.04
2023-04-02T03:57:11.300Z,9.15
2023-04-02T03:59:56.377Z,9.14
2023-04-02T04:02:47.965Z,9.07
2023-04-02T04:05:31.198Z,9.13
2023-04-02T04:08:08.025Z,9.16
2023-04-02T04:10:40.469Z,9.09
2023-04-02T04:13:15.382Z,9.11
2023-04-02T04:16:00.507Z,9.12
2023-04-02T04:18:38.008Z,9.07
2023-04-02T04:21:37.354Z,8.99
2023-04-02T04:24:06.648Z,9.11
2023-04-02T04:26:53.519Z,9.11
2023-04-02T04:29:47.047Z,9.11
2023-04-02T04:32:33.843Z,9.07
2023-04-02T04:35:26.697Z,9.09
2023-04-02T04:38:07.718Z,9.12
2023-04-02T04:40:37.534Z,9.27
2023-04-02T04:43:12.341Z,9.43
2023-04-02T04:45:45.100Z,9.36
2023-04-02T04:48:29.656Z,9.53
2023-04-02T04:51:01.487Z,9.58
2023-04-02T04:53:32.443Z,9.55
2023-04-02T04:56:16.101Z,9.80
2023-04-02T04:59:11.059Z,9.96
2023-04-02T05:01:42.930Z,10.17
2023-04-02T05:04:15.012Z,10.14
2023-04-02T05:06:56.621Z,10.05
2023-04-02T05:09:53.081Z,9.79
2023-04-02T05:12:39.044Z,9.92
2023-04-02T05:15:42.190Z,10.05
2023-04-02T05:18:21.060Z,10.27
2023-04-02T05:20:58.519Z,10.44
2023-04-02T05:23:30.669Z,10.43
2023-04-02T05:26:11.757Z,10.41
2023-04-02T05:28:50.543Z,10.35
2023-04-02T05:31:29.479Z,10.52
2023-04-02T05:33:56.770Z,10.46
2023-04-02T05:36:29.343Z,10.61
2023-04-02T05:38:57.755Z,10.64
2023-04-02T05:41:31.221Z,10.52
2023-04-02T05:44:16.488Z,10.66
2023-04-02T05:46:51.266Z,10.68
2023-04-02T05:49:40.137Z,10.81
2023-04-02T05:52:14.395Z,10.59
2023-04-02T05:55:04.038Z,10.48
2023-04-02T05:57:44.497Z,10.32
2023-04-02T06:00:25.273Z,10.39
2023-04-02T06:03:00.029Z,10.49
2023-04-02T06:05:33.880Z,10.36
2023-04-02T06:08:11.194Z,10.34
2023-04-02T06:10:45.537Z,10.33
2023-04-02T06:13:17.708Z,10.32
2023-04-02T06:15:46.051Z,10.41
2023-04-02T06:18:22.007Z,10.45
2023-04-02T06:20:48.644Z,10.49
2023-04-02T06:23:31.038Z,10.50
2023-04-02T06:26:06.371Z,10.53
2023-04-02T06:28:48.267Z,10.55
2023-04-02T06:31:45.131Z,10.60
2023-04-02T06:34:16.469Z,10.35
2023-04-02T06:36:49.780Z,10.27
2023-04-02T06:39:24.031Z,10.41
2023-04-02T06:42:14.917Z,10.38
2023-04-02T06:44:41.666Z,10.48
2023-04-02T06:47:27.077Z,10.47
2023-04-02T06:50:03.980Z,10.56
2023-04-02T06:52:39.485Z,10.63
2023-04-02T06:55:32.324Z,10.72
2023-04-02T06:58:03.471Z,10.72
2023-04-02T07:00:42.578Z,10.86
2023-04-02T07:03:26.220Z,10.89
2023-04-02T07:05:56.574Z,10.83
2023-04-02T07:08:28.049Z,10.90
2023-04-02T07:10:55.414Z,10.96
2023-04-02T07:13:25.838Z,11.03
2023-04-02T07:15:54.921Z,11.12
2023-04-02T07:18:34.180Z,10.88
2023-04-02T07:21:00.813Z,10.97
2023-04-02T07:23:27.378Z,11.03
2023-04-02T07:25:55.411Z,11.12
2023-04-02T07:28:23.111Z,11.20
2023-04-02T07:30:53.548Z,11.08
2023-04-02T07:33:25.424Z,11.22
2023-04-02T07:35:54.183Z,11.30
2023-04-02T07:38:23.306Z,11.57
2023-04-02T07:40:50.388Z,11.50
2023-04-02T07:43:16.959Z,11.79
2023-04-02T07:45:43.509Z,11.69
2023-04-02T07:48:16.232Z,11.83
2023-04-02T07:50:45.228Z,11.80
2023-04-02T07:53:40.444Z,11.93
2023-04-02T07:56:07.673Z,12.03
2023-04-02T07:58:36.549Z,12.12
2023-04-02T08:01:05.445Z,12.15
2023-04-02T08:03:34.295Z,11.97
2023-04-02T08:06:04.401Z,11.97
2023-04-02T08:08:30.986Z,11.94
2023-04-02T08:10:57.702Z,12.14
2023-04-02T08:13:26.594Z,12.20
2023-04-02T08:15:55.619Z,12.50
2023-04-02T08:18:24.420Z,12.39
2023-04-02T08:20:52.660Z,12.53
2023-04-02T08:23:22.317Z,12.93
2023-04-02T08:25:49.874Z,13.12
2023-04-02T08:28:19.343Z,13.20
2023-04-02T08:30:49.021Z,12.96
2023-04-02T08:33:19.007Z,13.37
2023-04-02T08:35:47.026Z,13.53
2023-04-02T08:38:18.596Z,13.68
2023-04-02T08:40:51.432Z,13.82
2023-04-02T08:43:53.413Z,13.93
2023-04-02T08:46:34.799Z,13.96
2023-04-02T08:49:04.645Z,13.61
2023-04-02T08:51:39.030Z,13.65
2023-04-02T08:54:24.740Z,13.38
2023-04-02T08:57:12.885Z,13.49
2023-04-02T08:59:44.291Z,13.13
2023-04-02T09:02:16.020Z,13.44
2023-04-02T09:04:45.062Z,13.57
2023-04-02T09:07:12.417Z,13.62
2023-04-02T09:09:41.223Z,13.78
2023-04-02T09:12:18.721Z,14.06
2023-04-02T09:15:26.649Z,14.13
2023-04-02T09:18:03.632Z,14.30
2023-04-02T09:20:30.462Z,14.20
2023-04-02T09:22:57.813Z,14.19
2023-04-02T09:25:34.302Z,13.97
2023-04-02T09:28:04.999Z,14.05
2023-04-02T09:31:02.030Z,13.86
2023-04-02T09:33:44.093Z,13.68
2023-04-02T09:36:26.424Z,13.80
2023-04-02T09:39:12.950Z,13.77
2023-04-02T09:41:39.534Z,13.70
2023-04-02T09:44:24.890Z,13.77
2023-04-02T09:47:00.096Z,13.77
2023-04-02T09:49:33.432Z,13.84
2023-04-02T09:52:21.226Z,13.67
2023-04-02T09:55:11.934Z,13.85
2023-04-02T09:57:38.846Z,13.61
2023-04-02T10:00:41.793Z,13.78
2023-04-02T10:03:26.663Z,13.93
2023-04-02T10:06:11.018Z,13.76
2023-04-02T10:08:42.430Z,13.87
2023-04-02T10:11:17.207Z,13.74
2023-04-02T10:13:51.468Z,13.79
2023-04-02T10:16:23.828Z,13.50
2023-04-02T10:19:00.317Z,13.22
2023-04-02T10:21:33.198Z,13.30
2023-04-02T10:24:03.037Z,13.45
2023-04-02T10:27:09.761Z,13.53
2023-04-02T10:29:54.074Z,13.85
2023-04-02T10:32:31.635Z,13.48
2023-04-02T10:35:06.462Z,13.52
2023-04-02T10:38:00.456Z,13.50
2023-04-02T10:40:30.012Z,13.47
2023-04-02T10:43:28.419Z,13.48
2023-04-02T10:46:22.424Z,13.41
2023-04-02T10:49:30.630Z,13.53
2023-04-02T10:52:13.654Z,13.73
2023-04-02T10:54:52.802Z,13.71
2023-04-02T10:57:40.638Z,13.81
2023-04-02T11:00:16.735Z,14.04
2023-04-02T11:03:06.065Z,14.06
2023-04-02T11:05:44.113Z,14.11
2023-04-02T11:08:22.936Z,14.33
2023-04-02T11:10:59.851Z,14.49
2023-04-02T11:13:31.969Z,14.77
2023-04-02T11:16:01.146Z,15.36
2023-04-02T11:18:36.105Z,15.50
2023-04-02T11:21:54.931Z,15.11
2023-04-02T11:24:31.556Z,14.89
2023-04-02T11:27:10.463Z,14.91
2023-04-02T11:30:08.034Z,14.79
2023-04-02T11:32:36.464Z,15.11
2023-04-02T11:35:34.664Z,14.45
2023-04-02T11:38:11.855Z,14.56
2023-04-02T11:40:48.812Z,14.53
2023-04-02T11:43:33.651Z,14.35
2023-04-02T11:46:07.585Z,14.08
2023-04-02T11:48:36.384Z,14.20
2023-04-02T11:51:22.479Z,14.45
2023-04-02T11:53:54.453Z,14.56
2023-04-02T11:56:37.265Z,14.74
2023-04-02T11:59:44.803Z,15.29
2023-04-02T12:02:37.668Z,15.90
2023-04-02T12:05:10.341Z,15.69
2023-04-02T12:08:05.238Z,15.44
2023-04-02T12:10:48.941Z,15.53
2023-04-02T12:13:20.424Z,15.91
2023-04-02T12:15:49.309Z,15.91
2023-04-02T12:18:20.835Z,15.89
2023-04-02T12:20:55.940Z,16.03
2023-04-02T12:23:29.651Z,16.32
2023-04-02T12:25:59.807Z,16.50
2023-04-02T12:28:33.917Z,16.39
2023-04-02T12:31:09.597Z,16.53
2023-04-02T12:33:37.602Z,16.73
2023-04-02T12:36:22.044Z,16.45
2023-04-02T12:39:00.873Z,16.73
2023-04-02T12:41:32.243Z,16.68
2023-04-02T12:44:16.443Z,16.88
2023-04-02T12:46:46.532Z,16.90
2023-04-02T12:49:15.389Z,16.53
2023-04-02T12:51:44.392Z,16.23
2023-04-02T12:54:17.340Z,16.17
2023-04-02T12:56:47.688Z,16.33
2023-04-02T12:59:44.926Z,15.77
2023-04-02T13:02:33.205Z,15.90
2023-04-02T13:05:03.621Z,16.26
2023-04-02T13:07:33.052Z,16.28
2023-04-02T13:10:23.202Z,15.68
2023-04-02T13:12:56.424Z,16.11
2023-04-02T13:15:28.322Z,16.05
2023-04-02T13:18:04.039Z,16.12
2023-04-02T13:20:34.302Z,16.41
2023-04-02T13:23:22.677Z,16.48
2023-04-02T13:25:52.125Z,16.46
2023-04-02T13:28:19.335Z,16.87
2023-04-02T13:30:46.688Z,16.39
2023-04-02T13:33:16.764Z,16.12
2023-04-02T13:35:43.835Z,15.88
2023-04-02T13:38:12.721Z,15.51
2023-04-02T13:40:41.995Z,15.30
2023-04-02T13:43:23.369Z,15.18
2023-04-02T13:45:56.341Z,15.57
2023-04-02T13:48:26.145Z,15.74
2023-04-02T13:50:57.539Z,15.93
2023-04-02T13:53:36.410Z,15.98
2023-04-02T13:56:08.457Z,15.88
2023-04-02T13:58:35.009Z,15.97
2023-04-02T14:01:04.466Z,15.76
2023-04-02T14:03:31.170Z,15.44
2023-04-02T14:06:03.595Z,15.49
2023-04-02T14:08:52.598Z,15.76
2023-04-02T14:11:33.671Z,16.13
2023-04-02T14:14:24.438Z,16.12
2023-04-02T14:17:15.042Z,15.59
2023-04-02T14:20:03.115Z,15.43
2023-04-02T14:22:35.972Z,15.43
2023-04-02T14:25:30.481Z,15.60
2023-04-02T14:28:22.168Z,15.70
2023-04-02T14:31:12.924Z,15.38
2023-04-02T14:33:42.236Z,14.96
2023-04-02T14:36:18.681Z,14.80
2023-04-02T14:38:59.624Z,14.58
2023-04-02T14:41:49.942Z,14.30
2023-04-02T14:44:23.318Z,14.11
2023-04-02T14:46:55.224Z,13.99
2023-04-02T14:49:27.055Z,14.00
2023-04-02T14:51:56.567Z,13.83
2023-04-02T14:54:38.773Z,13.61
2023-04-02T14:57:10.545Z,13.70
2023-04-02T14:59:39.943Z,13.74
2023-04-02T15:02:16.567Z,13.69
2023-04-02T15:05:01.791Z,13.48
2023-04-02T15:07:37.166Z,13.24
2023-04-02T15:10:15.951Z,12.94
2023-04-02T15:12:45.069Z,12.51
2023-04-02T15:15:39.868Z,12.36
2023-04-02T15:18:19.672Z,12.13
2023-04-02T15:20:54.637Z,11.54
2023-04-02T15:23:54.959Z,10.91
2023-04-02T15:26:38.270Z,10.40
2023-04-02T15:29:28.417Z,10.17
2023-04-02T15:32:14.910Z,10.00
2023-04-02T15:34:58.914Z,10.00
2023-04-02T15:37:28.353Z,10.12
2023-04-02T15:40:14.392Z,10.23
2023-04-02T15:42:52.353Z,10.44
2023-04-02T15:45:29.423Z,10.64
2023-04-02T15:48:44.155Z,10.77
2023-04-02T15:51:19.750Z,10.68
2023-04-02T15:54:04.586Z,10.68
2023-04-02T15:56:46.995Z,10.70
2023-04-02T15:59:13.485Z,10.86
2023-04-02T16:02:05.550Z,11.00
2023-04-02T16:05:06.468Z,10.97
2023-04-02T16:07:54.145Z,11.01
2023-04-02T16:10:42.007Z,11.17
2023-04-02T16:13:47.441Z,11.29
2023-04-02T16:16:35.145Z,11.33
2023-04-02T16:19:24.518Z,11.18
2023-04-02T16:22:17.446Z,11.51
2023-04-02T16:24:48.187Z,11.59
2023-04-02T16:27:27.326Z,11.74
2023-04-02T16:29:55.453Z,11.88
2023-04-02T16:32:49.413Z,11.77
2023-04-02T16:38:00.349Z,11.94
2023-04-02T16:40:38.594Z,11.90
2023-04-02T16:43:10.850Z,12.01
2023-04-02T16:45:52.979Z,11.78
2023-04-02T16:48:23.554Z,11.72
2023-04-02T16:51:17.681Z,11.51
2023-04-02T16:54:02.168Z,11.23
2023-04-02T16:56:41.868Z,11.15
2023-04-02T16:59:22.665Z,11.01
2023-04-02T17:02:07.917Z,11.09
2023-04-02T17:04:56.746Z,11.20
2023-04-02T17:07:36.785Z,11.16
2023-04-02T17:10:30.181Z,11.25
2023-04-02T17:13:03.919Z,11.07
2023-04-02T17:15:39.513Z,11.15
2023-04-02T17:18:16.346Z,10.40
2023-04-02T17:20:43.887Z,10.37
2023-04-02T17:23:13.907Z,10.49
2023-04-02T17:25:55.950Z,10.28
2023-04-02T17:28:36.612Z,10.29
2023-04-02T17:31:25.247Z,10.29
2023-04-02T17:33:54.986Z,10.46
2023-04-02T17:36:24.995Z,10.38
2023-04-02T17:39:03.668Z,10.02
2023-04-02T17:41:51.520Z,10.00
2023-04-02T17:44:38.878Z,10.08
2023-04-02T17:47:23.107Z,9.88
2023-04-02T17:50:04.714Z,9.64
2023-04-02T17:52:44.742Z,9.40
2023-04-02T17:55:40.783Z,9.42
2023-04-02T17:58:49.547Z,9.27
2023-04-02T18:01:31.259Z,9.20
2023-04-02T18:04:19.730Z,9.17
2023-04-02T18:07:19.263Z,9.02
2023-04-02T18:10:07.568Z,8.94
2023-04-02T18:12:57.071Z,8.93
2023-04-02T18:15:47.907Z,8.90
2023-04-02T18:18:33.365Z,8.69
2023-04-02T18:21:43.790Z,8.74
2023-04-02T18:24:39.140Z,8.69
2023-04-02T18:27:16.897Z,8.64
2023-04-02T18:29:55.974Z,8.56
2023-04-02T18:33:00.003Z,8.63
2023-04-02T18:35:35.500Z,8.46
2023-04-02T18:38:35.119Z,8.35
2023-04-02T18:41:07.407Z,8.35
2023-04-02T18:43:42.136Z,8.33
2023-04-02T18:46:33.216Z,8.39
2023-04-02T18:49:18.337Z,8.30
2023-04-02T18:51:46.888Z,8.15
2023-04-02T18:54:18.410Z,8.12
2023-04-02T18:56:47.572Z,8.09
2023-04-02T18:59:33.251Z,8.08
2023-04-02T19:02:21.140Z,8.00
2023-04-02T19:04:58.278Z,7.97
2023-04-02T19:07:29.276Z,7.92
2023-04-02T19:10:06.484Z,7.84
2023-04-02T19:12:33.958Z,7.86
2023-04-02T19:15:03.501Z,7.71
2023-04-02T19:17:39.482Z,7.71
2023-04-02T19:20:10.257Z,7.71
2023-04-02T19:22:36.706Z,7.71
2023-04-02T19:25:12.351Z,7.60
2023-04-02T19:27:51.430Z,7.52
2023-04-02T19:30:31.144Z,7.50
2023-04-02T19:33:18.847Z,7.43
2023-04-02T19:36:11.827Z,7.39
2023-04-02T19:39:16.795Z,7.42
2023-04-02T19:41:52.216Z,7.50
2023-04-02T19:44:19.175Z,7.46
2023-04-02T19:46:48.275Z,7.43
2023-04-02T19:49:22.797Z,7.40
2023-04-02T19:51:52.039Z,7.43
2023-04-02T19:54:18.817Z,7.29
2023-04-02T19:56:48.486Z,7.29
2023-04-02T19:59:17.926Z,7.32
2023-04-02T20:01:45.784Z,7.27
2023-04-02T20:04:12.872Z,7.24
2023-04-02T20:06:39.528Z,7.21
2023-04-02T20:09:10.933Z,7.27
2023-04-02T20:11:39.786Z,7.17
2023-04-02T20:14:06.339Z,7.12
2023-04-02T20:16:36.911Z,7.18
2023-04-02T20:19:06.062Z,7.28
2023-04-02T20:21:38.251Z,7.23
2023-04-02T20:24:07.084Z,7.13
2023-04-02T20:26:35.205Z,7.14
2023-04-02T20:29:04.763Z,7.10
2023-04-02T20:31:33.646Z,7.16
2023-04-02T20:34:02.543Z,7.12
2023-04-02T20:36:29.458Z,7.06
2023-04-02T20:39:00.863Z,7.03
2023-04-02T20:41:32.346Z,7.14
2023-04-02T20:44:01.259Z,7.18
2023-04-02T20:46:27.886Z,7.12
2023-04-02T20:48:57.146Z,7.17
2023-04-02T20:51:23.672Z,7.24
2023-04-02T20:53:50.182Z,7.21
2023-04-02T20:56:22.086Z,7.17
2023-04-02T20:58:49.543Z,7.10
2023-04-02T21:01:27.178Z,7.10
2023-04-02T21:03:58.990Z,7.01
2023-04-02T21:06:30.824Z,7.03
2023-04-02T21:09:05.292Z,7.01
2023-04-02T21:11:35.934Z,7.07
2023-04-02T21:14:05.028Z,6.90
2023-04-02T21:16:34.891Z,6.87
2023-04-02T21:19:07.039Z,6.86
2023-04-02T21:21:37.490Z,6.66
2023-04-02T21:24:06.398Z,6.71
2023-04-02T21:26:36.368Z,6.82
2023-04-02T21:29:06.274Z,6.78
2023-04-02T21:31:40.392Z,6.76
2023-04-02T21:34:09.185Z,6.82
2023-04-02T21:36:39.543Z,6.81
2023-04-02T21:39:25.780Z,6.78
2023-04-02T21:41:53.302Z,6.93
2023-04-02T21:44:23.514Z,6.88
2023-04-02T21:46:52.975Z,6.87
2023-04-02T21:49:22.841Z,6.91
2023-04-02T21:51:52.588Z,6.95
2023-04-02T21:54:24.055Z,6.85
2023-04-02T21:56:50.996Z,6.82
2023-04-02T21:59:18.257Z,6.74
2023-04-02T22:01:52.373Z,6.89
2023-04-02T22:04:26.091Z,6.76
2023-04-02T22:06:55.486Z,6.75
2023-04-02T22:09:24.371Z,6.67
2023-04-02T22:11:59.188Z,6.70
2023-04-02T22:14:27.506Z,6.72
2023-04-02T22:16:54.303Z,6.61
2023-04-02T22:19:21.426Z,6.71
2023-04-02T22:21:48.060Z,6.79
2023-04-02T22:24:16.371Z,6.76
2023-04-02T22:26:44.319Z,6.59
2023-04-02T22:29:13.809Z,6.54
2023-04-02T22:31:40.475Z,6.66
2023-04-02T22:34:10.445Z,6.65
2023-04-02T22:36:39.790Z,6.64
2023-04-02T22:39:09.849Z,6.64
2023-04-02T22:41:36.435Z,6.67
2023-04-02T22:44:07.920Z,6.59
2023-04-02T22:46:34.792Z,6.59
2023-04-02T22:49:01.637Z,6.67
2023-04-02T22:51:30.708Z,6.69
2023-04-02T22:53:59.800Z,6.75
2023-04-02T22:56:32.128Z,6.63
2023-04-02T22:58:59.362Z,6.40
2023-04-02T23:01:35.433Z,6.44
2023-04-02T23:04:02.219Z,6.44
2023-04-02T23:06:29.566Z,6.42
2023-04-02T23:09:01.025Z,6.43
2023-04-02T23:11:27.983Z,6.60
2023-04-02T23:13:57.040Z,6.67
2023-04-02T23:16:26.839Z,6.83
2023-04-02T23:18:57.371Z,6.71
2023-04-02T23:21:27.521Z,6.48
2023-04-02T23:23:54.578Z,6.51
2023-04-02T23:26:29.378Z,6.25
2023-04-02T23:28:57.566Z,6.37
2023-04-02T23:31:24.710Z,6.24
2023-04-02T23:33:52.356Z,6.30
2023-04-02T23:36:30.809Z,6.35
2023-04-02T23:39:01.422Z,6.20
2023-04-02T23:41:31.587Z,6.11
2023-04-02T23:44:00.656Z,6.07
2023-04-02T23:46:28.742Z,5.96
2023-04-02T23:48:59.180Z,6.17
2023-04-02T23:51:29.613Z,6.27
2023-04-02T23:53:58.465Z,6.25
2023-04-02T23:56:25.983Z,6.14
2023-04-02T23:58:52.658Z,5.98
